Time;durP1;ratioP1;P1;durP2;ratioP2;P2;SDS_P1;SDS_P2;PMS_P1;PMS_P2;Temp;Humidity;BMP_temperature;BMP_pressure;BME280_temperature;BME280_humidity;BME280_pressure;Samples;Min_cycle;Max_cycle;Signal;HPM_P1;HPM_P2
2022/07/22 00:00:25;;;;;;;1.05;0.40;;;19.80;99.90;;;;;;4817887;29;20506;-79
2022/07/22 00:02:52;;;;;;;0.40;0.35;;;19.80;99.90;;;;;;4816631;29;20636;-79
2022/07/22 00:05:19;;;;;;;0.73;0.30;;;19.80;99.90;;;;;;4816531;29;20148;-78
2022/07/22 00:07:46;;;;;;;0.40;0.40;;;19.80;99.90;;;;;;4795538;29;20074;-78
2022/07/22 00:10:12;;;;;;;0.20;0.20;;;19.80;99.90;;;;;;4826663;29;20122;-79
2022/07/22 00:12:39;;;;;;;0.40;0.40;;;19.70;99.90;;;;;;4819702;29;20058;-78
2022/07/22 00:15:08;;;;;;;0.60;0.30;;;19.70;99.90;;;;;;4793708;29;20066;-79
2022/07/22 00:17:36;;;;;;;0.65;0.30;;;19.70;99.90;;;;;;4801485;29;20046;-78
2022/07/22 00:20:04;;;;;;;0.60;0.30;;;19.70;99.90;;;;;;4817247;29;20122;-78
2022/07/22 00:22:30;;;;;;;0.63;0.30;;;19.70;99.90;;;;;;4799579;29;20138;-78
2022/07/22 00:24:58;;;;;;;0.40;0.30;;;19.70;99.90;;;;;;4794182;29;20046;-79
2022/07/22 00:27:25;;;;;;;0.85;0.32;;;19.70;99.90;;;;;;4791838;29;20051;-78
2022/07/22 00:29:52;;;;;;;0.82;0.30;;;19.60;99.90;;;;;;4815583;29;20104;-80
2022/07/22 00:32:18;;;;;;;0.40;0.38;;;19.60;99.90;;;;;;4824861;29;20471;-79
2022/07/22 00:34:47;;;;;;;1.15;0.40;;;19.50;99.90;;;;;;4802524;29;20068;-78
2022/07/22 00:37:14;;;;;;;0.35;0.30;;;19.50;99.90;;;;;;4812574;29;20100;-79
2022/07/22 00:39:41;;;;;;;0.55;0.40;;;19.40;99.90;;;;;;4809370;29;20409;-78
2022/07/22 00:42:08;;;;;;;0.68;0.20;;;19.40;99.90;;;;;;4801836;29;20133;-79
2022/07/22 00:44:35;;;;;;;0.95;0.40;;;19.50;99.90;;;;;;4807529;29;20478;-78
2022/07/22 00:47:04;;;;;;;0.85;0.30;;;19.40;99.90;;;;;;4795259;29;20132;-78
2022/07/22 00:49:31;;;;;;;0.32;0.32;;;19.40;99.90;;;;;;4822429;29;20419;-78
2022/07/22 00:51:59;;;;;;;1.05;0.40;;;19.40;99.90;;;;;;4802566;29;20521;-79
2022/07/22 00:54:25;;;;;;;0.40;0.30;;;19.40;99.90;;;;;;4814096;29;20107;-78
2022/07/22 00:56:52;;;;;;;0.30;0.30;;;19.40;99.90;;;;;;4802186;29;20136;-78
2022/07/22 00:59:20;;;;;;;0.50;0.50;;;19.40;99.90;;;;;;4829007;29;20045;-78
2022/07/22 01:01:47;;;;;;;0.57;0.40;;;19.40;99.90;;;;;;4833005;29;20085;-78
2022/07/22 01:04:14;;;;;;;0.75;0.40;;;19.40;99.90;;;;;;4831470;29;20065;-78
2022/07/22 01:06:44;;;;;;;0.20;0.20;;;19.30;99.90;;;;;;4790724;29;20054;-78
2022/07/22 01:09:12;;;;;;;1.38;0.47;;;19.30;99.90;;;;;;4830512;29;20122;-78
2022/07/22 01:11:40;;;;;;;1.10;0.35;;;19.30;99.90;;;;;;4801907;29;20499;-78
2022/07/22 01:14:07;;;;;;;0.85;0.50;;;19.30;99.90;;;;;;4833981;29;20065;-79
2022/07/22 01:16:34;;;;;;;0.82;0.45;;;19.30;99.90;;;;;;4827380;29;20092;-79
2022/07/22 01:19:01;;;;;;;1.38;0.50;;;19.20;99.90;;;;;;4800325;29;20147;-78
2022/07/22 01:21:28;;;;;;;0.80;0.40;;;19.30;99.90;;;;;;4807135;29;20113;-78
2022/07/22 01:23:56;;;;;;;0.47;0.32;;;19.30;99.90;;;;;;4797492;29;20089;-79
2022/07/22 01:26:23;;;;;;;0.40;0.30;;;19.30;99.90;;;;;;4801464;29;20088;-78
2022/07/22 01:28:50;;;;;;;0.82;0.40;;;19.20;99.90;;;;;;4809632;29;20200;-79
2022/07/22 01:47:29;;;;;;;1.27;0.40;;;19.20;99.90;;;;;;4863821;24;20113;-89
2022/07/22 01:49:57;;;;;;;0.50;0.40;;;19.10;99.90;;;;;;4810245;29;20057;-89
2022/07/22 01:52:24;;;;;;;0.35;0.35;;;19.10;99.90;;;;;;4815362;29;20061;-89
2022/07/22 01:54:50;;;;;;;0.47;0.40;;;19.10;99.90;;;;;;4795088;29;20389;-88
2022/07/22 01:57:18;;;;;;;0.50;0.38;;;19.10;99.90;;;;;;4812089;29;20050;-88
2022/07/22 01:59:45;;;;;;;1.08;0.50;;;19.10;99.90;;;;;;4809131;29;20061;-91
2022/07/22 02:02:11;;;;;;;0.47;0.40;;;19.10;99.90;;;;;;4812669;29;20046;-90
2022/07/22 02:04:38;;;;;;;0.93;0.50;;;19.10;99.90;;;;;;4796945;29;20065;-91
2022/07/22 02:07:06;;;;;;;0.63;0.43;;;19.00;99.90;;;;;;4798708;29;20079;-89
2022/07/22 02:09:33;;;;;;;0.75;0.40;;;19.10;99.90;;;;;;4822698;29;20109;-91
2022/07/22 02:12:00;;;;;;;0.35;0.32;;;19.10;99.90;;;;;;4811468;29;20062;-88
2022/07/22 02:14:27;;;;;;;1.08;0.45;;;19.00;99.90;;;;;;4812504;29;20065;-88
2022/07/22 02:16:54;;;;;;;0.75;0.38;;;19.10;99.90;;;;;;4810308;29;20121;-90
2022/07/22 02:19:22;;;;;;;0.77;0.40;;;19.00;99.90;;;;;;4816019;29;20054;-90
2022/07/22 02:21:49;;;;;;;0.88;0.40;;;19.00;99.90;;;;;;4813680;29;20057;-89
2022/07/22 02:24:16;;;;;;;0.30;0.30;;;18.90;99.90;;;;;;4816706;29;20497;-90
2022/07/22 02:26:42;;;;;;;0.45;0.32;;;18.90;99.90;;;;;;4811396;29;20281;-90
2022/07/22 02:29:09;;;;;;;0.63;0.35;;;18.90;99.90;;;;;;4802559;29;20517;-90
2022/07/22 02:31:36;;;;;;;0.20;0.20;;;19.00;99.90;;;;;;4820649;29;20045;-90
2022/07/22 02:34:04;;;;;;;1.50;0.43;;;18.90;99.90;;;;;;4808080;29;20118;-90
2022/07/22 02:36:31;;;;;;;0.45;0.40;;;18.90;99.90;;;;;;4810900;29;20058;-89
2022/07/22 02:38:58;;;;;;;0.77;0.40;;;18.90;99.90;;;;;;4795011;29;20076;-90
2022/07/22 02:41:26;;;;;;;0.85;0.50;;;18.90;99.90;;;;;;4781060;29;20091;-89
2022/07/22 02:43:54;;;;;;;0.20;0.20;;;18.80;99.90;;;;;;4808320;29;20114;-89
2022/07/22 02:46:22;;;;;;;1.23;0.43;;;18.80;99.90;;;;;;4815723;29;20069;-90
2022/07/22 02:48:49;;;;;;;0.95;0.45;;;18.80;99.90;;;;;;4780520;29;20054;-90
2022/07/22 02:51:16;;;;;;;0.50;0.45;;;18.80;99.90;;;;;;4794685;29;20042;-90
2022/07/22 02:53:44;;;;;;;0.20;0.20;;;18.80;99.90;;;;;;4808836;29;20066;-89
2022/07/22 02:56:11;;;;;;;0.70;0.68;;;18.70;99.90;;;;;;4796073;29;20490;-88
2022/07/22 02:58:39;;;;;;;0.55;0.40;;;18.80;99.90;;;;;;4782749;29;20119;-89
2022/07/22 03:01:06;;;;;;;0.63;0.30;;;18.70;99.90;;;;;;4792270;29;20050;-89
2022/07/22 03:03:33;;;;;;;0.10;0.10;;;18.70;99.90;;;;;;4802385;29;20149;-89
2022/07/22 03:06:01;;;;;;;0.30;0.30;;;18.70;99.90;;;;;;4811509;29;20077;-90
2022/07/22 03:08:28;;;;;;;0.20;0.20;;;18.70;99.90;;;;;;4782180;29;20058;-89
2022/07/22 03:10:55;;;;;;;0.77;0.30;;;18.70;99.90;;;;;;4778964;29;20058;-90
2022/07/22 03:13:22;;;;;;;0.20;0.20;;;18.70;99.90;;;;;;4784347;29;20059;-89
2022/07/22 03:15:49;;;;;;;1.13;0.40;;;18.60;99.90;;;;;;4786923;29;20065;-89
2022/07/22 03:18:16;;;;;;;0.30;0.30;;;18.60;99.90;;;;;;4779902;29;20057;-88
2022/07/22 03:20:43;;;;;;;0.30;0.30;;;18.60;99.90;;;;;;4805450;29;20060;-87
2022/07/22 03:23:10;;;;;;;0.43;0.38;;;18.60;99.90;;;;;;4795689;29;20194;-87
2022/07/22 03:25:38;;;;;;;1.55;0.30;;;18.50;99.90;;;;;;4795785;29;20197;-86
2022/07/22 03:28:06;;;;;;;0.77;0.60;;;18.50;99.90;;;;;;4784400;29;20246;-88
2022/07/22 03:30:33;;;;;;;0.68;0.40;;;18.50;99.90;;;;;;4794861;29;20126;-89
2022/07/22 03:33:00;;;;;;;0.55;0.30;;;18.50;99.90;;;;;;4806763;29;20056;-88
2022/07/22 03:35:27;;;;;;;0.22;0.22;;;18.50;99.90;;;;;;4809445;29;20050;-88
2022/07/22 03:37:54;;;;;;;0.20;0.20;;;18.50;99.90;;;;;;4790928;29;20066;-88
2022/07/22 03:40:21;;;;;;;0.30;0.30;;;18.50;99.90;;;;;;4797424;29;20110;-90
2022/07/22 03:42:48;;;;;;;0.30;0.30;;;18.50;99.90;;;;;;4795864;29;20073;-88
2022/07/22 03:45:15;;;;;;;0.90;0.30;;;18.50;99.90;;;;;;4813190;29;20046;-88
2022/07/22 03:47:42;;;;;;;1.90;0.30;;;18.50;99.90;;;;;;4793899;29;20057;-88
2022/07/22 03:50:09;;;;;;;0.28;0.22;;;18.50;99.90;;;;;;4797501;29;20151;-90
2022/07/22 03:52:37;;;;;;;0.30;0.20;;;18.50;99.90;;;;;;4812146;29;20077;-89
2022/07/22 03:55:05;;;;;;;0.45;0.30;;;18.50;99.90;;;;;;4812225;29;20061;-90
2022/07/22 03:57:31;;;;;;;0.60;0.38;;;18.50;99.90;;;;;;4807576;29;20050;-89
2022/07/22 03:59:58;;;;;;;0.30;0.30;;;18.40;99.90;;;;;;4802534;29;20058;-88
2022/07/22 04:02:26;;;;;;;0.20;0.20;;;18.40;99.90;;;;;;4792647;29;20050;-90
2022/07/22 04:04:53;;;;;;;0.38;0.38;;;18.40;99.90;;;;;;4811733;29;20057;-89
2022/07/22 04:07:20;;;;;;;1.30;0.40;;;18.40;99.90;;;;;;4805452;29;20054;-88
2022/07/22 04:09:47;;;;;;;0.57;0.50;;;18.30;99.90;;;;;;4791734;29;20477;-91
2022/07/22 04:12:14;;;;;;;0.35;0.30;;;18.30;99.90;;;;;;4792863;29;20107;-87
2022/07/22 04:14:40;;;;;;;0.63;0.52;;;18.30;99.90;;;;;;4797168;29;20143;-88
2022/07/22 04:17:07;;;;;;;0.22;0.20;;;18.20;99.90;;;;;;4822604;29;20490;-89
2022/07/22 04:19:41;;;;;;;0.47;0.35;;;18.20;99.90;;;;;;4814181;29;20053;-89
2022/07/22 04:22:08;;;;;;;0.63;0.50;;;18.20;99.90;;;;;;4798239;29;20061;-92
2022/07/22 04:24:35;;;;;;;0.95;0.30;;;18.10;99.90;;;;;;4795094;29;20054;-91
2022/07/22 04:27:02;;;;;;;0.35;0.35;;;18.10;99.90;;;;;;4781182;29;20065;-90
2022/07/22 04:29:29;;;;;;;1.40;0.40;;;18.10;99.90;;;;;;4785339;29;20062;-93
2022/07/22 04:31:56;;;;;;;0.40;0.35;;;18.10;99.90;;;;;;4789039;29;20046;-88
2022/07/22 04:34:28;;;;;;;0.50;0.40;;;18.10;99.90;;;;;;4816154;29;20112;-89
2022/07/22 04:36:58;;;;;;;0.45;0.30;;;18.10;99.90;;;;;;4800286;29;20061;-91
2022/07/22 04:39:25;;;;;;;0.57;0.40;;;18.10;99.90;;;;;;4788921;29;20122;-89
2022/07/22 04:41:52;;;;;;;0.35;0.32;;;18.10;99.90;;;;;;4812130;29;20053;-89
2022/07/22 04:44:19;;;;;;;0.70;0.40;;;18.10;99.90;;;;;;4797667;29;20050;-89
2022/07/22 04:46:46;;;;;;;0.55;0.30;;;18.20;99.90;;;;;;4814648;29;20060;-88
2022/07/22 04:49:13;;;;;;;0.70;0.63;;;18.20;99.90;;;;;;4800709;29;20057;-88
2022/07/22 04:51:40;;;;;;;0.30;0.20;;;18.20;99.90;;;;;;4816070;29;20527;-89
2022/07/22 04:54:08;;;;;;;0.40;0.30;;;18.20;99.90;;;;;;4799407;29;20057;-89
2022/07/22 04:56:35;;;;;;;0.60;0.50;;;18.30;99.90;;;;;;4813777;29;20413;-88
2022/07/22 04:59:02;;;;;;;0.30;0.30;;;18.30;99.90;;;;;;4804943;29;20056;-87
2022/07/22 05:01:29;;;;;;;0.90;0.40;;;18.30;99.90;;;;;;4807080;29;20110;-89
2022/07/22 05:03:56;;;;;;;0.57;0.30;;;18.30;99.90;;;;;;4785029;29;20092;-90
2022/07/22 05:06:30;;;;;;;0.20;0.20;;;18.40;99.90;;;;;;4795496;29;20089;-91
2022/07/22 05:09:16;;;;;;;0.35;0.30;;;18.50;99.90;;;;;;4790230;29;20117;-89
2022/07/22 05:11:47;;;;;;;0.30;0.30;;;18.50;99.90;;;;;;4815818;29;20053;-89
2022/07/22 05:14:20;;;;;;;1.10;0.80;;;18.50;99.90;;;;;;4793062;29;20133;-90
2022/07/22 05:16:56;;;;;;;0.60;0.50;;;18.60;99.90;;;;;;4795025;29;20086;-90
2022/07/22 05:19:36;;;;;;;1.80;0.85;;;18.60;99.90;;;;;;4817574;29;20050;-91
2022/07/22 05:22:13;;;;;;;0.88;0.80;;;18.60;99.90;;;;;;4807671;29;20107;-91
2022/07/22 05:24:58;;;;;;;1.20;0.80;;;18.60;99.90;;;;;;4798238;29;20060;-90
2022/07/22 05:27:30;;;;;;;0.70;0.60;;;18.60;99.90;;;;;;4806593;29;20131;-89
2022/07/22 05:30:08;;;;;;;1.27;0.80;;;18.60;99.90;;;;;;4797640;29;20108;-90
2022/07/22 05:32:48;;;;;;;1.88;0.60;;;18.70;99.90;;;;;;4799868;29;20134;-89
2022/07/22 05:35:16;;;;;;;0.50;0.50;;;18.70;99.90;;;;;;4809729;29;20057;-90
2022/07/22 05:37:44;;;;;;;0.60;0.50;;;18.70;99.90;;;;;;4807648;29;20060;-90
2022/07/22 05:40:17;;;;;;;0.57;0.50;;;18.80;99.90;;;;;;4811737;29;20084;-91
2022/07/22 05:42:47;;;;;;;0.80;0.60;;;18.70;99.90;;;;;;4796370;29;20447;-89
2022/07/22 05:45:23;;;;;;;1.20;0.70;;;18.70;99.90;;;;;;4793584;29;20062;-89
2022/07/22 05:48:03;;;;;;;0.70;0.52;;;18.70;99.90;;;;;;4790356;29;20054;-90
2022/07/22 05:50:35;;;;;;;1.02;0.70;;;18.80;99.90;;;;;;4794696;29;20049;-90
2022/07/22 05:53:05;;;;;;;0.85;0.70;;;18.80;99.90;;;;;;4811671;29;20121;-90
2022/07/22 05:55:37;;;;;;;1.00;0.90;;;18.80;99.90;;;;;;4817130;29;20056;-92
2022/07/22 05:58:06;;;;;;;2.28;1.30;;;18.90;99.90;;;;;;4801000;29;20512;-90
2022/07/22 06:00:34;;;;;;;1.65;0.80;;;19.00;99.90;;;;;;4813957;29;20053;-90
2022/07/22 06:03:02;;;;;;;0.75;0.70;;;19.00;99.90;;;;;;4811586;29;20053;-89
2022/07/22 06:05:29;;;;;;;2.05;1.48;;;19.00;99.90;;;;;;4811653;29;20121;-89
2022/07/22 06:08:04;;;;;;;1.27;1.00;;;19.10;99.90;;;;;;4819775;29;20072;-90
2022/07/22 06:10:34;;;;;;;1.00;0.80;;;19.00;99.90;;;;;;4811300;29;20070;-90
2022/07/22 06:13:04;;;;;;;1.48;1.00;;;19.10;99.90;;;;;;4818568;29;20406;-88
2022/07/22 06:15:33;;;;;;;1.50;1.20;;;19.10;99.90;;;;;;4815955;29;20054;-90
2022/07/22 06:18:03;;;;;;;1.40;1.20;;;19.10;99.90;;;;;;4812944;29;20085;-89
2022/07/22 06:20:37;;;;;;;1.20;1.00;;;19.10;99.90;;;;;;4816751;29;20086;-90
2022/07/22 06:23:05;;;;;;;1.25;1.05;;;19.10;99.90;;;;;;4798646;29;20115;-89
2022/07/22 06:25:36;;;;;;;1.42;0.98;;;19.00;99.90;;;;;;4811002;29;20144;-89
2022/07/22 06:28:09;;;;;;;1.25;1.00;;;19.00;99.90;;;;;;4805212;29;20054;-88
2022/07/22 06:30:37;;;;;;;0.93;0.73;;;19.00;99.90;;;;;;4807755;29;20110;-88
2022/07/22 06:33:04;;;;;;;1.25;0.80;;;19.10;99.90;;;;;;4794936;29;20503;-92
2022/07/22 06:35:31;;;;;;;1.52;0.90;;;19.10;99.90;;;;;;4810795;29;20053;-90
2022/07/22 06:37:58;;;;;;;1.20;0.77;;;19.10;99.90;;;;;;4813183;29;20050;-87
2022/07/22 06:40:32;;;;;;;0.82;0.60;;;19.10;99.90;;;;;;4814854;29;20058;-90
2022/07/22 06:42:59;;;;;;;0.82;0.65;;;19.10;99.90;;;;;;4793697;29;20138;-89
2022/07/22 06:45:27;;;;;;;0.90;0.70;;;19.20;99.90;;;;;;4808444;29;20511;-89
2022/07/22 06:47:54;;;;;;;0.82;0.60;;;19.30;99.90;;;;;;4823616;29;20060;-89
2022/07/22 06:50:24;;;;;;;0.60;0.60;;;19.30;99.90;;;;;;4815556;29;20082;-88
2022/07/22 06:52:53;;;;;;;1.08;0.70;;;19.30;99.90;;;;;;4808308;29;20610;-90
2022/07/22 06:55:20;;;;;;;1.65;1.05;;;19.30;99.90;;;;;;4808741;29;20054;-88
2022/07/22 06:57:47;;;;;;;0.63;0.60;;;19.30;99.90;;;;;;4800397;29;20069;-90
2022/07/22 07:00:15;;;;;;;0.65;0.50;;;19.30;99.90;;;;;;4802929;29;20470;-89
2022/07/22 07:02:42;;;;;;;0.57;0.45;;;19.30;99.90;;;;;;4782147;29;20069;-89
2022/07/22 07:05:09;;;;;;;0.40;0.40;;;19.40;99.90;;;;;;4803646;29;20629;-88
2022/07/22 07:07:46;;;;;;;1.23;0.68;;;19.40;99.90;;;;;;4805086;29;20058;-88
2022/07/22 07:10:15;;;;;;;1.38;0.50;;;19.40;99.90;;;;;;4805995;29;20467;-87
2022/07/22 07:12:43;;;;;;;0.38;0.30;;;19.40;99.90;;;;;;4801819;29;20134;-87
2022/07/22 07:15:10;;;;;;;0.30;0.30;;;19.50;99.90;;;;;;4793115;29;20058;-88
2022/07/22 07:17:54;;;;;;;0.63;0.50;;;19.50;99.90;;;;;;4810486;29;20062;-88
2022/07/22 07:20:21;;;;;;;0.73;0.60;;;19.60;99.90;;;;;;4818241;29;20126;-89
2022/07/22 07:22:48;;;;;;;0.50;0.50;;;19.70;99.90;;;;;;4816264;29;20065;-88
2022/07/22 07:25:16;;;;;;;1.45;0.55;;;19.80;99.90;;;;;;4814725;29;20462;-87
2022/07/22 07:27:50;;;;;;;1.70;0.60;;;19.90;99.90;;;;;;4814062;29;20533;-87
2022/07/22 07:30:20;;;;;;;0.60;0.50;;;20.00;99.90;;;;;;4814043;29;20046;-87
2022/07/22 07:32:47;;;;;;;0.65;0.63;;;20.20;99.90;;;;;;4814241;29;20674;-91
2022/07/22 07:35:30;;;;;;;0.63;0.40;;;20.40;99.90;;;;;;4812650;29;20095;-92
2022/07/22 07:38:50;;;;;;;0.77;0.60;;;20.50;99.90;;;;;;4805025;29;20060;-92
2022/07/22 07:41:28;;;;;;;2.47;0.68;;;20.80;99.90;;;;;;4827335;29;20069;-88
2022/07/22 07:43:58;;;;;;;0.70;0.63;;;20.90;99.90;;;;;;4795749;29;20069;-86
2022/07/22 07:47:20;;;;;;;0.98;0.68;;;21.00;99.90;;;;;;4791762;29;20058;-92
2022/07/22 07:50:46;;;;;;;;;;;;;;;;;;;;;
2022/07/22 07:53:56;;;;;;;0.40;0.40;;;21.20;99.90;;;;;;4814856;29;20089;-91
2022/07/22 07:56:53;;;;;;;0.40;0.40;;;21.40;99.90;;;;;;4800487;29;20109;-91
2022/07/22 08:00:28;;;;;;;;;;;;;;;;;;;;;
2022/07/22 08:08:26;;;;;;;0.65;0.50;;;22.50;99.40;;;;;;4721099;30;20090;-91
2022/07/22 08:15:45;;;;;;;1.02;0.50;;;22.20;98.20;;;;;;4678244;30;20060;-92
2022/07/22 08:19:37;;;;;;;;;;;;;;;;;;;;;
2022/07/22 08:26:48;;;;;;;0.97;0.70;;;21.50;99.40;;;;;;4640004;30;20685;-91
2022/07/22 08:30:20;;;;;;;0.93;0.65;;;21.50;99.50;;;;;;4633653;30;20380;-91
2022/07/22 08:37:26;;;;;;;1.40;0.70;;;21.80;99.20;;;;;;4660576;30;20056;-91
2022/07/22 08:40:54;;;;;;;0.65;0.43;;;22.10;98.60;;;;;;4687802;30;20060;-91
2022/07/22 08:52:34;;;;;;;;;;;;;;;;;;;;;
2022/07/22 08:56:45;;;;;;;;;;;;;;;;;;;;;
2022/07/22 09:14:55;;;;;;;;;;;;;;;;;;;;;
2022/07/22 09:18:38;;;;;;;;;;;;;;;;;;;;;
2022/07/22 09:33:59;;;;;;;0.95;0.75;;;23.30;95.50;;;;;;5334668;24;20501;-81
2022/07/22 09:36:26;;;;;;;0.65;0.50;;;23.20;95.90;;;;;;4803646;29;20674;-79
2022/07/22 09:38:53;;;;;;;0.70;0.60;;;23.20;95.80;;;;;;4803992;29;20085;-79
2022/07/22 09:41:21;;;;;;;1.20;0.50;;;23.30;96.10;;;;;;4803471;29;20057;-79
2022/07/22 09:43:49;;;;;;;0.77;0.55;;;23.40;95.80;;;;;;4802216;29;20513;-80
2022/07/22 09:46:16;;;;;;;0.70;0.40;;;23.60;95.50;;;;;;4818442;29;20056;-77
2022/07/22 09:48:44;;;;;;;1.02;0.60;;;23.80;95.70;;;;;;4832724;29;20057;-81
2022/07/22 09:51:11;;;;;;;0.30;0.30;;;24.00;95.20;;;;;;4818439;29;20053;-82
2022/07/22 09:53:37;;;;;;;0.70;0.40;;;24.10;95.30;;;;;;4833035;29;20130;-82
2022/07/22 09:56:06;;;;;;;0.40;0.32;;;24.30;95.10;;;;;;4818415;29;20137;-81
2022/07/22 09:58:33;;;;;;;0.90;0.60;;;24.20;94.80;;;;;;4801942;29;20057;-81
2022/07/22 10:01:03;;;;;;;1.02;0.70;;;24.10;94.60;;;;;;4806949;29;20069;-82
2022/07/22 10:03:32;;;;;;;0.52;0.35;;;24.10;94.80;;;;;;4830480;29;20625;-80
2022/07/22 10:06:00;;;;;;;1.05;0.50;;;24.10;94.90;;;;;;4797959;29;20061;-80
2022/07/22 10:08:27;;;;;;;0.73;0.60;;;23.90;94.80;;;;;;4805950;29;20054;-78
2022/07/22 10:11:01;;;;;;;0.77;0.30;;;23.90;94.70;;;;;;4780221;29;20091;-79
2022/07/22 10:13:28;;;;;;;1.25;0.57;;;23.90;95.00;;;;;;4816141;29;20382;-79
2022/07/22 10:15:56;;;;;;;2.72;0.70;;;24.00;94.70;;;;;;4828985;29;20061;-79
2022/07/22 10:18:25;;;;;;;2.00;0.98;;;24.00;94.30;;;;;;4823767;29;20133;-79
2022/07/22 10:21:06;;;;;;;1.08;0.52;;;24.10;94.20;;;;;;4782648;29;20664;-79
2022/07/22 10:23:33;;;;;;;0.90;0.65;;;24.10;93.80;;;;;;4808276;29;20395;-79
2022/07/22 10:26:02;;;;;;;0.90;0.50;;;24.30;93.60;;;;;;4799187;29;20063;-78
2022/07/22 10:28:36;;;;;;;1.25;0.50;;;24.50;93.50;;;;;;4816678;29;20512;-78
2022/07/22 10:31:23;;;;;;;0.75;0.50;;;24.60;92.90;;;;;;4799577;29;20057;-79
2022/07/22 10:33:55;;;;;;;0.63;0.50;;;24.70;92.60;;;;;;4810196;29;20084;-79
2022/07/22 10:36:36;;;;;;;1.25;0.50;;;24.70;92.50;;;;;;4798379;29;20097;-79
2022/07/22 10:39:08;;;;;;;0.98;0.40;;;24.80;92.50;;;;;;4815351;29;20480;-79
2022/07/22 10:41:42;;;;;;;0.40;0.40;;;24.80;92.70;;;;;;4812709;29;20062;-78
2022/07/22 10:44:46;;;;;;;0.50;0.50;;;24.90;92.80;;;;;;4805687;29;20054;-79
2022/07/22 10:47:54;;;;;;;0.80;0.57;;;25.20;92.20;;;;;;4812175;29;20137;-79
2022/07/22 10:50:42;;;;;;;0.75;0.35;;;25.40;91.60;;;;;;4810469;29;20121;-79
2022/07/22 10:53:14;;;;;;;0.47;0.30;;;25.50;91.50;;;;;;4830265;29;20106;-78
2022/07/22 10:56:16;;;;;;;1.35;0.47;;;25.30;91.50;;;;;;4812268;29;20062;-79
2022/07/22 10:59:08;;;;;;;1.15;0.55;;;25.00;91.60;;;;;;4820718;29;20261;-79
2022/07/22 11:01:35;;;;;;;0.60;0.50;;;24.70;92.10;;;;;;4815648;29;20054;-79
2022/07/22 11:04:19;;;;;;;0.40;0.40;;;24.50;92.40;;;;;;4819923;29;20061;-80
2022/07/22 11:06:47;;;;;;;1.05;0.52;;;24.30;92.80;;;;;;4823598;29;20061;-78
2022/07/22 11:09:15;;;;;;;0.70;0.50;;;24.10;93.00;;;;;;4814389;29;20054;-77
2022/07/22 11:11:49;;;;;;;0.22;0.20;;;24.10;92.80;;;;;;4814896;29;20463;-80
2022/07/22 11:14:26;;;;;;;0.52;0.30;;;24.10;92.80;;;;;;4819468;29;20453;-80
2022/07/22 11:16:55;;;;;;;0.75;0.40;;;24.00;92.80;;;;;;4833114;29;20106;-78
2022/07/22 11:19:27;;;;;;;0.90;0.50;;;23.90;93.10;;;;;;4822363;29;20062;-80
2022/07/22 11:21:56;;;;;;;1.00;0.50;;;23.70;93.00;;;;;;4834885;29;20094;-79
2022/07/22 11:24:25;;;;;;;0.75;0.50;;;23.60;93.50;;;;;;4822394;29;20361;-79
2022/07/22 11:26:53;;;;;;;1.02;0.50;;;23.50;93.80;;;;;;4815620;29;20057;-77
2022/07/22 11:29:46;;;;;;;0.28;0.28;;;23.50;94.00;;;;;;4834487;29;20077;-78
2022/07/22 11:32:13;;;;;;;0.73;0.40;;;23.50;93.90;;;;;;4824758;29;20192;-79
2022/07/22 11:34:44;;;;;;;0.30;0.30;;;23.60;94.30;;;;;;4801285;29;20562;-78
2022/07/22 11:37:12;;;;;;;0.82;0.50;;;23.60;94.10;;;;;;4825764;29;20406;-78
2022/07/22 11:39:39;;;;;;;0.73;0.50;;;23.50;94.30;;;;;;4828675;29;20414;-77
2022/07/22 11:42:06;;;;;;;0.43;0.30;;;23.40;94.60;;;;;;4806560;29;20054;-79
2022/07/22 11:44:35;;;;;;;0.77;0.50;;;23.30;95.30;;;;;;4822536;29;20534;-81
2022/07/22 11:47:03;;;;;;;0.47;0.32;;;23.10;95.70;;;;;;4808119;29;20141;-78
2022/07/22 11:49:33;;;;;;;0.57;0.40;;;23.00;96.00;;;;;;4814565;29;20098;-79
2022/07/22 11:52:01;;;;;;;0.60;0.50;;;22.90;96.30;;;;;;4823288;29;20110;-82
2022/07/22 11:54:28;;;;;;;1.77;0.70;;;22.80;96.10;;;;;;4823395;29;20046;-82
2022/07/22 11:56:56;;;;;;;0.70;0.40;;;22.80;96.00;;;;;;4816907;29;20089;-82
2022/07/22 11:59:24;;;;;;;1.13;0.50;;;22.70;96.30;;;;;;4795891;29;20047;-82
2022/07/22 12:01:50;;;;;;;0.93;0.52;;;22.60;96.00;;;;;;4816015;29;20127;-81
2022/07/22 12:04:22;;;;;;;0.50;0.45;;;22.60;96.30;;;;;;4785015;29;20069;-81
2022/07/22 12:06:49;;;;;;;1.15;0.60;;;22.50;96.40;;;;;;4792864;29;20409;-81
2022/07/22 12:09:19;;;;;;;0.32;0.30;;;22.40;97.30;;;;;;4830898;29;20081;-81
2022/07/22 12:11:48;;;;;;;0.38;0.38;;;22.40;97.30;;;;;;4799270;29;20118;-81
2022/07/22 12:14:20;;;;;;;0.30;0.30;;;22.40;97.90;;;;;;4801084;29;20058;-80
2022/07/22 12:17:09;;;;;;;0.57;0.50;;;22.40;97.90;;;;;;4816095;29;20138;-79
2022/07/22 12:19:37;;;;;;;0.40;0.30;;;22.30;97.70;;;;;;4801508;29;20256;-79
2022/07/22 12:22:13;;;;;;;0.40;0.40;;;22.20;97.70;;;;;;4807823;29;20061;-79
2022/07/22 12:24:42;;;;;;;1.13;0.73;;;22.20;97.40;;;;;;4803755;29;20058;-81
2022/07/22 12:27:10;;;;;;;1.08;0.70;;;22.00;98.20;;;;;;4778303;29;20078;-80
2022/07/22 12:29:36;;;;;;;0.70;0.60;;;22.00;99.90;;;;;;4801390;29;20054;-80
2022/07/22 12:32:11;;;;;;;0.40;0.40;;;22.00;99.90;;;;;;4814993;29;20102;-79
2022/07/22 12:34:55;;;;;;;0.65;0.50;;;21.90;99.90;;;;;;4800901;29;20076;-80
2022/07/22 12:37:26;;;;;;;0.40;0.40;;;21.80;99.90;;;;;;4796601;29;20053;-78
2022/07/22 12:39:57;;;;;;;1.73;0.63;;;21.80;99.90;;;;;;4826069;29;20579;-77
2022/07/22 12:42:26;;;;;;;1.30;0.50;;;21.70;99.90;;;;;;4814495;29;20058;-77
2022/07/22 12:45:04;;;;;;;0.38;0.35;;;21.60;99.90;;;;;;4815857;29;20063;-77
2022/07/22 12:47:53;;;;;;;0.90;0.40;;;21.70;99.90;;;;;;4815628;29;20057;-78
2022/07/22 12:50:42;;;;;;;0.50;0.50;;;21.70;99.90;;;;;;4832235;29;20383;-79
2022/07/22 12:53:14;;;;;;;0.40;0.32;;;21.70;99.90;;;;;;4799762;29;20150;-79
2022/07/22 12:55:45;;;;;;;0.70;0.50;;;21.70;99.90;;;;;;4801266;29;20484;-79
2022/07/22 12:58:12;;;;;;;0.38;0.38;;;21.70;99.90;;;;;;4814544;29;20140;-81
2022/07/22 13:00:43;;;;;;;0.73;0.45;;;21.60;99.90;;;;;;4816129;29;20141;-77
2022/07/22 13:03:10;;;;;;;0.40;0.40;;;21.60;99.90;;;;;;4815338;29;20058;-79
2022/07/22 13:05:37;;;;;;;0.40;0.40;;;21.70;99.90;;;;;;4800897;29;20094;-78
2022/07/22 13:08:04;;;;;;;0.22;0.22;;;21.70;99.90;;;;;;4828283;29;20095;-80
2022/07/22 13:10:35;;;;;;;1.92;0.50;;;21.70;99.90;;;;;;4814472;29;20050;-78
2022/07/22 13:13:02;;;;;;;0.65;0.30;;;21.70;99.90;;;;;;4812594;29;20092;-81
2022/07/22 13:15:29;;;;;;;1.13;0.40;;;21.80;99.90;;;;;;4812443;29;20135;-80
2022/07/22 13:17:56;;;;;;;0.40;0.40;;;21.90;99.90;;;;;;4794460;29;20055;-78
2022/07/22 13:20:23;;;;;;;1.55;0.45;;;22.20;99.90;;;;;;4781341;29;20062;-78
2022/07/22 13:22:50;;;;;;;0.40;0.40;;;22.50;99.90;;;;;;4797216;29;20050;-78
2022/07/22 13:25:17;;;;;;;0.60;0.40;;;22.70;99.90;;;;;;4795284;29;20061;-77
2022/07/22 13:27:44;;;;;;;0.55;0.52;;;22.90;99.90;;;;;;4789287;29;20485;-80
2022/07/22 13:30:11;;;;;;;0.52;0.52;;;23.00;99.90;;;;;;4797263;29;20490;-79
2022/07/22 13:32:39;;;;;;;0.47;0.40;;;23.20;99.90;;;;;;4822138;29;20049;-80
2022/07/22 13:35:15;;;;;;;0.50;0.45;;;23.40;99.80;;;;;;4816720;29;20054;-78
2022/07/22 13:37:45;;;;;;;1.35;0.68;;;23.50;99.90;;;;;;4815680;29;20057;-79
2022/07/22 13:40:13;;;;;;;0.63;0.43;;;23.60;99.90;;;;;;4830918;29;20122;-82
2022/07/22 13:42:40;;;;;;;0.50;0.50;;;23.80;99.40;;;;;;4789619;29;20135;-81
2022/07/22 13:45:09;;;;;;;0.85;0.73;;;24.10;99.00;;;;;;4813983;29;20057;-82
2022/07/22 13:47:37;;;;;;;0.60;0.60;;;24.50;98.00;;;;;;4810373;29;20054;-79
2022/07/22 13:50:04;;;;;;;0.90;0.70;;;25.50;97.50;;;;;;4778791;29;20395;-82
2022/07/22 13:52:31;;;;;;;1.67;0.70;;;26.20;95.70;;;;;;4796675;29;20093;-82
2022/07/22 13:54:58;;;;;;;1.90;0.77;;;27.00;94.90;;;;;;4802100;29;20054;-83
2022/07/22 13:57:25;;;;;;;1.52;0.73;;;27.80;94.20;;;;;;4803171;29;20062;-81
2022/07/22 13:59:52;;;;;;;1.75;0.70;;;28.50;92.20;;;;;;4791406;29;20490;-81
2022/07/22 14:02:19;;;;;;;0.60;0.60;;;28.70;91.20;;;;;;4781092;29;20417;-79
2022/07/22 14:04:46;;;;;;;0.60;0.60;;;29.10;90.40;;;;;;4812738;29;20100;-80
2022/07/22 14:07:13;;;;;;;0.60;0.60;;;29.90;90.60;;;;;;4814976;29;20760;-79
2022/07/22 14:09:40;;;;;;;0.63;0.50;;;30.00;87.40;;;;;;4800557;29;20058;-81
2022/07/22 14:12:07;;;;;;;0.57;0.50;;;29.40;86.30;;;;;;4831837;29;20058;-80
2022/07/22 14:14:34;;;;;;;0.40;0.30;;;28.80;88.30;;;;;;4819515;29;20104;-80
2022/07/22 14:17:01;;;;;;;0.50;0.40;;;28.60;89.00;;;;;;4811448;29;20102;-80
2022/07/22 14:19:29;;;;;;;0.60;0.50;;;28.30;88.10;;;;;;4797597;29;20063;-82
2022/07/22 14:21:56;;;;;;;0.28;0.28;;;28.00;89.00;;;;;;4797272;29;20062;-82
2022/07/22 14:24:24;;;;;;;1.38;0.75;;;27.60;89.20;;;;;;4788611;29;20595;-81
2022/07/22 14:26:51;;;;;;;0.68;0.43;;;27.20;89.70;;;;;;4828230;29;20046;-81
2022/07/22 14:29:21;;;;;;;0.43;0.43;;;27.20;90.00;;;;;;4817395;29;20057;-80
2022/07/22 14:31:48;;;;;;;0.60;0.60;;;27.60;90.00;;;;;;4818407;29;20446;-78